Time;durP1;ratioP1;P1;durP2;ratioP2;P2;SDS_P1;SDS_P2;PMS_P1;PMS_P2;Temp;Humidity;BMP_temperature;BMP_pressure;BME280_temperature;BME280_humidity;BME280_pressure;Samples;Min_cycle;Max_cycle;Signal;HPM_P1;HPM_P2
2021/12/07 00:01:48;;;;;;;828.20;754.30;;;2.60;99.90;;;;;;4976095;28;21022;-83
2021/12/07 00:04:15;;;;;;;823.60;747.50;;;2.70;99.90;;;;;;4977238;28;20549;-83
2021/12/07 00:06:45;;;;;;;818.10;742.70;;;2.70;99.90;;;;;;4979260;28;20944;-83
2021/12/07 00:09:15;;;;;;;793.57;719.30;;;2.70;99.90;;;;;;4980973;28;20481;-83
2021/12/07 00:11:47;;;;;;;780.50;706.97;;;2.80;99.90;;;;;;4981864;28;20462;-83
2021/12/07 00:14:21;;;;;;;790.93;716.03;;;2.80;99.90;;;;;;4979792;28;20463;-84
2021/12/07 00:16:54;;;;;;;779.57;707.33;;;2.90;99.90;;;;;;4982193;28;20478;-85
2021/12/07 00:19:22;;;;;;;785.10;714.40;;;2.80;99.90;;;;;;4983662;28;20458;-85
2021/12/07 00:21:52;;;;;;;764.23;696.60;;;2.70;99.90;;;;;;4981014;28;20463;-86
2021/12/07 00:24:26;;;;;;;766.87;701.60;;;2.60;99.90;;;;;;4979583;28;20466;-85
2021/12/07 00:26:55;;;;;;;767.00;700.40;;;2.60;99.90;;;;;;4978393;28;20455;-84
2021/12/07 00:29:23;;;;;;;750.63;686.77;;;2.70;99.90;;;;;;4980036;28;20543;-84
2021/12/07 00:32:09;;;;;;;743.60;681.03;;;2.60;99.90;;;;;;4980080;28;20830;-85
2021/12/07 00:34:54;;;;;;;741.00;678.17;;;2.60;99.90;;;;;;4978908;28;20518;-84
2021/12/07 00:37:21;;;;;;;742.27;681.27;;;2.60;99.90;;;;;;4978132;28;20493;-84
2021/12/07 00:39:48;;;;;;;741.50;683.03;;;2.60;99.90;;;;;;4979054;28;20458;-85
2021/12/07 00:42:15;;;;;;;741.83;683.83;;;2.70;99.90;;;;;;4978421;28;20463;-84
2021/12/07 00:44:45;;;;;;;739.53;682.47;;;2.60;99.90;;;;;;4978174;28;20458;-84
2021/12/07 00:47:13;;;;;;;732.53;675.63;;;2.60;99.90;;;;;;4978646;28;20497;-84
2021/12/07 00:49:44;;;;;;;733.33;677.43;;;2.60;99.90;;;;;;4979308;28;20545;-84
2021/12/07 00:52:14;;;;;;;730.00;672.40;;;2.60;99.90;;;;;;4978342;28;20468;-85
2021/12/07 00:54:41;;;;;;;726.87;668.93;;;2.70;99.90;;;;;;4978396;28;20451;-84
2021/12/07 00:57:08;;;;;;;729.57;668.00;;;2.70;99.90;;;;;;4977831;28;20478;-84
2021/12/07 00:59:35;;;;;;;709.00;648.23;;;2.80;99.90;;;;;;4978455;28;20487;-84
2021/12/07 01:02:06;;;;;;;715.57;652.90;;;2.80;99.90;;;;;;4977872;28;20562;-84
2021/12/07 01:04:37;;;;;;;714.37;652.40;;;2.80;99.90;;;;;;4978407;28;20459;-85
2021/12/07 01:07:06;;;;;;;719.63;656.90;;;2.90;99.90;;;;;;4977628;28;20963;-85
2021/12/07 01:09:42;;;;;;;722.60;659.00;;;2.90;99.90;;;;;;4978348;28;20485;-85
2021/12/07 01:26:05;;;;;;;710.47;647.50;;;3.50;99.90;;;;;;4978265;28;20434;-85
2021/12/07 01:28:42;;;;;;;716.37;651.40;;;3.60;99.90;;;;;;4977866;28;20499;-85
2021/12/07 01:31:16;;;;;;;709.90;648.00;;;3.70;99.90;;;;;;4978096;28;20458;-85
2021/12/07 01:34:09;;;;;;;717.27;653.67;;;3.70;99.90;;;;;;4977566;28;20608;-86
2021/12/07 01:37:05;;;;;;;713.60;649.30;;;3.60;99.90;;;;;;4977225;28;20467;-85
2021/12/07 01:45:36;;;;;;;708.63;645.47;;;3.70;99.90;;;;;;4977458;28;20423;-85
2021/12/07 01:49:37;;;;;;;715.00;651.43;;;3.80;99.90;;;;;;4977594;28;20471;-85
2021/12/07 01:51:08;;;;;;;729.83;665.47;;;3.80;99.90;;;;;;4978744;28;20975;-85
2021/12/07 02:01:57;;;;;;;706.00;646.40;;;4.00;99.90;;;;;;4978101;28;20831;-85
2021/12/07 02:04:24;;;;;;;704.07;645.23;;;4.00;99.90;;;;;;4978023;28;20531;-84
2021/12/07 02:06:51;;;;;;;725.73;666.63;;;4.10;99.90;;;;;;4978070;28;20574;-84
2021/12/07 02:09:21;;;;;;;721.13;663.63;;;4.10;99.90;;;;;;4978516;28;20966;-84
2021/12/07 02:11:50;;;;;;;716.97;661.27;;;4.20;99.90;;;;;;4978868;28;20982;-84
2021/12/07 02:14:18;;;;;;;717.30;661.40;;;4.10;99.90;;;;;;4979178;28;20529;-85
2021/12/07 02:16:47;;;;;;;717.03;661.83;;;4.10;99.90;;;;;;4980334;28;20462;-85
2021/12/07 02:19:14;;;;;;;715.60;661.27;;;4.20;99.90;;;;;;4979940;28;20478;-85
2021/12/07 02:21:45;;;;;;;714.83;660.10;;;4.20;99.90;;;;;;4981094;28;20463;-84
2021/12/07 02:24:11;;;;;;;720.07;666.70;;;4.20;99.90;;;;;;4980824;28;20459;-84
2021/12/07 02:26:39;;;;;;;740.30;685.90;;;4.30;99.90;;;;;;4979879;28;20466;-84
2021/12/07 02:29:06;;;;;;;747.33;693.97;;;4.20;99.90;;;;;;4980036;28;20481;-84
2021/12/07 02:31:33;;;;;;;744.43;690.07;;;4.30;99.90;;;;;;4980596;28;20498;-84
2021/12/07 02:34:01;;;;;;;757.70;704.50;;;4.40;99.90;;;;;;4980773;28;20458;-84
2021/12/07 02:36:29;;;;;;;756.27;701.87;;;4.40;99.90;;;;;;4980725;28;21188;-84
2021/12/07 02:38:57;;;;;;;750.60;698.53;;;4.30;99.90;;;;;;4979000;28;20479;-84
2021/12/07 02:41:24;;;;;;;755.57;702.67;;;4.40;99.90;;;;;;4979436;28;20458;-84
2021/12/07 02:43:51;;;;;;;744.07;691.23;;;4.50;99.90;;;;;;4978779;28;20491;-84
2021/12/07 02:46:18;;;;;;;747.33;696.27;;;4.40;99.90;;;;;;4979283;28;20835;-84
2021/12/07 02:48:44;;;;;;;760.80;708.70;;;4.50;99.90;;;;;;4979484;28;20867;-84
2021/12/07 02:51:11;;;;;;;760.87;708.73;;;4.50;99.90;;;;;;4978875;28;20459;-83
2021/12/07 02:53:38;;;;;;;775.60;722.80;;;4.50;99.90;;;;;;4979533;28;20928;-84
2021/12/07 02:56:08;;;;;;;783.87;730.33;;;4.50;99.90;;;;;;4978907;28;20447;-84
2021/12/07 02:58:35;;;;;;;782.67;727.23;;;4.50;99.90;;;;;;4979723;28;20487;-84
2021/12/07 03:01:10;;;;;;;790.07;733.47;;;4.50;99.90;;;;;;4979635;28;20517;-84
2021/12/07 03:03:43;;;;;;;791.73;736.97;;;4.40;99.90;;;;;;4978706;28;20450;-84
2021/12/07 03:06:17;;;;;;;797.20;740.37;;;4.50;99.90;;;;;;4979345;28;20985;-84
2021/12/07 03:28:16;;;;;;;783.90;730.60;;;4.60;99.90;;;;;;4978861;28;20466;-83
2021/12/07 03:30:42;;;;;;;785.00;732.47;;;4.50;99.90;;;;;;4979016;28;20481;-83
2021/12/07 03:33:10;;;;;;;780.40;728.03;;;4.60;99.90;;;;;;4979306;28;20466;-83
2021/12/07 03:35:37;;;;;;;783.70;731.53;;;4.60;99.90;;;;;;4978163;28;20450;-84
2021/12/07 03:38:05;;;;;;;789.60;738.10;;;4.60;99.90;;;;;;4978582;28;20498;-83
2021/12/07 03:40:35;;;;;;;782.80;731.90;;;4.60;99.90;;;;;;4978744;28;20458;-85
2021/12/07 03:43:01;;;;;;;793.37;740.57;;;4.70;99.90;;;;;;4978304;28;20456;-83
2021/12/07 03:45:31;;;;;;;797.13;746.13;;;4.60;99.90;;;;;;4978727;28;20462;-84
2021/12/07 03:47:58;;;;;;;791.03;740.97;;;4.60;99.90;;;;;;4978255;28;20511;-84
2021/12/07 03:50:26;;;;;;;787.63;736.80;;;4.60;99.90;;;;;;4978108;28;20455;-84
2021/12/07 03:52:53;;;;;;;789.17;737.07;;;4.60;99.90;;;;;;4978339;28;20459;-83
2021/12/07 03:55:22;;;;;;;785.87;734.87;;;4.50;99.90;;;;;;4977948;28;20578;-83
2021/12/07 03:57:49;;;;;;;797.10;744.90;;;4.40;99.90;;;;;;4978094;28;20482;-85
2021/12/07 04:00:19;;;;;;;774.53;724.00;;;4.40;99.90;;;;;;4978749;28;20459;-84
2021/12/07 04:02:50;;;;;;;780.13;729.63;;;4.30;99.90;;;;;;4978161;28;20459;-83
2021/12/07 04:05:19;;;;;;;784.97;732.90;;;4.20;99.90;;;;;;4977981;28;20455;-83
2021/12/07 04:07:47;;;;;;;777.37;724.40;;;4.20;99.90;;;;;;4978486;28;20479;-83
2021/12/07 04:10:17;;;;;;;773.23;719.87;;;4.10;99.90;;;;;;4978550;28;20509;-83
2021/12/07 04:12:44;;;;;;;776.30;721.90;;;4.10;99.90;;;;;;4978439;28;20454;-83
2021/12/07 04:15:13;;;;;;;769.83;714.33;;;4.10;99.90;;;;;;4977725;28;20462;-82
2021/12/07 04:17:40;;;;;;;774.37;720.23;;;4.10;99.90;;;;;;4977739;28;21018;-83
2021/12/07 04:20:11;;;;;;;769.10;715.87;;;4.10;99.90;;;;;;4977796;28;20459;-84
2021/12/07 04:22:38;;;;;;;773.67;716.17;;;4.00;99.90;;;;;;4977931;28;20459;-84
2021/12/07 04:25:09;;;;;;;773.90;718.10;;;4.10;99.90;;;;;;4977913;28;20542;-84
2021/12/07 04:27:38;;;;;;;778.03;721.10;;;4.00;99.90;;;;;;4978678;28;20554;-83
2021/12/07 04:30:08;;;;;;;755.73;698.30;;;4.00;99.90;;;;;;4978671;28;20455;-84
2021/12/07 04:32:35;;;;;;;763.20;704.77;;;4.10;99.90;;;;;;4977816;28;20469;-83
2021/12/07 04:35:01;;;;;;;766.40;709.10;;;4.00;99.90;;;;;;4977780;28;20455;-82
2021/12/07 04:37:31;;;;;;;751.60;694.30;;;4.10;99.90;;;;;;4977354;28;21146;-83
2021/12/07 04:39:58;;;;;;;762.17;704.00;;;4.10;99.90;;;;;;4977497;28;20470;-83
2021/12/07 04:42:25;;;;;;;747.53;690.23;;;4.10;99.90;;;;;;4977814;28;20466;-83
2021/12/07 04:44:53;;;;;;;754.00;696.67;;;4.00;99.90;;;;;;4977427;28;20497;-84
2021/12/07 04:47:25;;;;;;;770.97;714.20;;;4.00;99.90;;;;;;4977740;28;20494;-83
2021/12/07 04:50:25;;;;;;;749.97;694.30;;;4.00;99.90;;;;;;4980408;28;20463;-84
2021/12/07 04:58:21;;;;;;;770.30;715.93;;;3.90;99.90;;;;;;4980749;28;21010;-83
2021/12/07 05:00:49;;;;;;;758.43;702.23;;;3.90;99.90;;;;;;4980316;28;20458;-83
2021/12/07 05:03:19;;;;;;;766.43;711.57;;;3.90;99.90;;;;;;4980571;28;20494;-84
2021/12/07 05:05:49;;;;;;;759.20;703.30;;;3.90;99.90;;;;;;4979751;28;20466;-83
2021/12/07 05:08:31;;;;;;;746.07;691.77;;;4.00;99.90;;;;;;4980478;28;20479;-84
2021/12/07 05:11:25;;;;;;;750.10;695.10;;;4.00;99.90;;;;;;4980441;28;20454;-83
2021/12/07 05:13:57;;;;;;;746.20;691.40;;;4.00;99.90;;;;;;4979365;28;20831;-83
2021/12/07 05:16:44;;;;;;;740.23;686.10;;;4.00;99.90;;;;;;4978876;28;20466;-82
2021/12/07 05:24:53;;;;;;;743.23;688.87;;;4.00;99.90;;;;;;4979413;28;20438;-83
2021/12/07 05:38:37;;;;;;;751.33;697.80;;;4.00;99.90;;;;;;4978763;28;21014;-83
2021/12/07 05:41:09;;;;;;;756.47;702.10;;;4.10;99.90;;;;;;4978647;28;20463;-85
2021/12/07 05:43:36;;;;;;;745.57;691.83;;;4.00;99.90;;;;;;4979015;28;20480;-83
2021/12/07 05:46:35;;;;;;;;;;;;;;;;;;;;;
2021/12/07 05:49:02;;;;;;;753.40;700.60;;;4.10;99.90;;;;;;4975351;28;20475;-84
2021/12/07 05:52:13;;;;;;;742.90;691.40;;;3.90;99.90;;;;;;4978389;28;20461;-82
2021/12/07 05:54:40;;;;;;;751.73;699.23;;;3.90;99.90;;;;;;4978598;28;21192;-82
2021/12/07 05:57:09;;;;;;;754.20;702.10;;;3.90;99.90;;;;;;4977905;28;20825;-83
2021/12/07 06:00:01;;;;;;;764.23;709.80;;;3.90;99.90;;;;;;4978452;28;20479;-82
2021/12/07 06:02:28;;;;;;;749.43;693.57;;;3.80;99.90;;;;;;4978025;28;21010;-83
2021/12/07 06:04:55;;;;;;;751.80;696.10;;;3.80;99.90;;;;;;4978076;28;20470;-82
2021/12/07 06:07:21;;;;;;;743.20;688.37;;;3.80;99.90;;;;;;4977721;28;20478;-83
2021/12/07 06:09:48;;;;;;;726.60;670.23;;;3.80;99.90;;;;;;4977875;28;20455;-82
2021/12/07 06:12:16;;;;;;;718.40;662.47;;;3.80;99.90;;;;;;4977492;28;20967;-82
2021/12/07 06:14:44;;;;;;;723.77;667.87;;;3.80;99.90;;;;;;4979135;28;20451;-83
2021/12/07 06:17:12;;;;;;;718.30;664.67;;;3.80;99.90;;;;;;4976981;28;20465;-83
2021/12/07 06:19:39;;;;;;;723.10;669.43;;;3.90;99.90;;;;;;4977413;28;20479;-83
2021/12/07 06:22:06;;;;;;;722.57;667.77;;;3.80;99.90;;;;;;4977191;28;20458;-83
2021/12/07 06:24:33;;;;;;;720.50;665.53;;;3.90;99.90;;;;;;4978122;28;20963;-83
2021/12/07 06:27:00;;;;;;;718.67;664.37;;;3.80;99.90;;;;;;4978188;28;20966;-82
2021/12/07 06:29:29;;;;;;;719.07;666.03;;;3.90;99.90;;;;;;4977298;28;20462;-83
2021/12/07 06:31:55;;;;;;;719.87;666.73;;;4.00;99.90;;;;;;4978034;28;20466;-82
2021/12/07 06:34:26;;;;;;;717.67;666.07;;;4.10;99.90;;;;;;4977868;28;20457;-82
2021/12/07 06:36:52;;;;;;;718.33;669.50;;;4.10;99.90;;;;;;4976952;28;20439;-81
2021/12/07 06:39:22;;;;;;;717.63;668.80;;;4.20;99.90;;;;;;4977388;28;20533;-82
2021/12/07 06:41:50;;;;;;;715.83;667.63;;;4.20;99.90;;;;;;4978018;28;20530;-82
2021/12/07 06:44:17;;;;;;;721.50;673.80;;;4.10;99.90;;;;;;4976417;28;20443;-83
2021/12/07 06:46:47;;;;;;;715.47;670.87;;;4.10;99.90;;;;;;4976978;28;20455;-81
2021/12/07 06:49:14;;;;;;;717.23;671.40;;;4.00;99.90;;;;;;4976516;28;20574;-81
2021/12/07 06:51:41;;;;;;;724.60;678.57;;;3.80;99.90;;;;;;4976927;28;20943;-81
2021/12/07 06:54:10;;;;;;;722.47;675.47;;;3.70;99.90;;;;;;4976407;28;20463;-83
2021/12/07 06:56:37;;;;;;;732.50;684.30;;;3.60;99.90;;;;;;4977198;28;20461;-82
2021/12/07 06:59:05;;;;;;;721.27;671.10;;;3.50;99.90;;;;;;4977186;28;20486;-83
2021/12/07 07:01:33;;;;;;;714.50;662.60;;;3.40;99.90;;;;;;4977708;28;20466;-81
2021/12/07 07:04:01;;;;;;;721.37;667.63;;;3.30;99.90;;;;;;4977350;28;20462;-82
2021/12/07 07:06:28;;;;;;;718.27;662.67;;;3.20;99.90;;;;;;4977515;28;20525;-82
2021/12/07 07:08:55;;;;;;;719.10;661.43;;;3.10;99.90;;;;;;4977059;28;20467;-82
2021/12/07 07:11:23;;;;;;;716.03;654.90;;;3.00;99.90;;;;;;4973481;28;20458;-82
2021/12/07 07:13:50;;;;;;;717.90;654.80;;;2.90;99.90;;;;;;4974164;28;20455;-82
2021/12/07 07:16:27;;;;;;;722.00;658.40;;;2.90;99.90;;;;;;4973774;28;20458;-82
2021/12/07 07:19:03;;;;;;;727.77;663.40;;;2.80;99.90;;;;;;4975319;28;20490;-82
2021/12/07 07:21:39;;;;;;;717.40;651.60;;;2.80;99.90;;;;;;4974466;28;20459;-82
2021/12/07 07:24:09;;;;;;;728.67;662.30;;;2.80;99.90;;;;;;4974094;28;20455;-82
2021/12/07 07:26:51;;;;;;;727.77;660.77;;;2.70;99.90;;;;;;4973415;28;20955;-82
2021/12/07 07:29:32;;;;;;;717.70;649.10;;;2.60;99.90;;;;;;4973433;28;20886;-83
2021/12/07 07:32:11;;;;;;;;;;;;;;;;;;;;;
2021/12/07 07:34:57;;;;;;;730.97;661.20;;;2.70;99.90;;;;;;4974370;28;20443;-82
2021/12/07 07:38:01;;;;;;;738.90;669.30;;;2.80;99.90;;;;;;4973347;28;21049;-82
2021/12/07 07:40:36;;;;;;;736.23;666.20;;;2.80;99.90;;;;;;4973389;28;20486;-81
2021/12/07 07:43:04;;;;;;;775.13;701.78;;;2.60;99.90;;;;;;4972631;28;20457;-81
2021/12/07 07:45:30;;;;;;;721.30;654.80;;;2.50;99.90;;;;;;4972957;28;20615;-83
2021/12/07 07:47:59;;;;;;;730.03;662.20;;;2.60;99.90;;;;;;4973698;28;20475;-82
2021/12/07 07:50:26;;;;;;;733.20;663.67;;;2.50;99.90;;;;;;4973483;28;20459;-81
2021/12/07 07:52:52;;;;;;;731.70;663.47;;;2.50;99.90;;;;;;4973719;28;20519;-82
2021/12/07 07:55:21;;;;;;;730.03;660.70;;;2.50;99.90;;;;;;4973372;28;20459;-81
2021/12/07 07:57:49;;;;;;;731.60;662.30;;;2.40;99.90;;;;;;4973390;28;20517;-82
2021/12/07 08:00:18;;;;;;;734.27;662.53;;;2.50;99.90;;;;;;4973214;28;20483;-83
2021/12/07 08:02:54;;;;;;;727.73;658.70;;;2.50;99.90;;;;;;4973757;28;20476;-82
2021/12/07 08:05:25;;;;;;;729.37;659.50;;;2.50;99.90;;;;;;4972959;28;20462;-81
2021/12/07 08:07:53;;;;;;;728.73;657.27;;;2.40;99.90;;;;;;4973277;28;20482;-82
2021/12/07 08:10:28;;;;;;;746.70;674.37;;;2.40;99.90;;;;;;4973279;28;20514;-82
2021/12/07 08:13:08;;;;;;;745.27;671.93;;;2.40;99.90;;;;;;4954784;28;20940;-82
2021/12/07 08:15:42;;;;;;;738.27;663.53;;;2.30;99.90;;;;;;4952850;28;20455;-81
2021/12/07 08:18:10;;;;;;;741.00;667.10;;;2.40;99.90;;;;;;4953823;29;20475;-81
2021/12/07 08:20:37;;;;;;;741.03;667.83;;;2.30;99.90;;;;;;4953649;28;20569;-81
2021/12/07 08:23:23;;;;;;;742.87;668.90;;;2.40;99.90;;;;;;4956497;28;20458;-81
2021/12/07 08:25:57;;;;;;;745.80;671.30;;;2.30;99.90;;;;;;4957202;29;20460;-82
2021/12/07 08:31:28;;;;;;;748.23;672.67;;;2.50;99.90;;;;;;4955334;28;20448;-81
2021/12/07 08:33:55;;;;;;;750.77;675.60;;;2.60;99.90;;;;;;4956778;28;20949;-81
2021/12/07 08:36:22;;;;;;;749.70;674.50;;;2.60;99.90;;;;;;4959042;28;20878;-82
2021/12/07 08:38:50;;;;;;;752.43;677.17;;;2.60;99.90;;;;;;4964109;28;20490;-81
2021/12/07 08:41:17;;;;;;;742.00;668.30;;;2.60;99.90;;;;;;4960348;28;20455;-81
2021/12/07 08:43:46;;;;;;;741.47;668.33;;;2.60;99.90;;;;;;4956547;28;20463;-81
2021/12/07 08:46:15;;;;;;;747.97;675.07;;;2.60;99.90;;;;;;4956931;29;20457;-82
2021/12/07 08:48:48;;;;;;;756.20;683.90;;;2.60;99.90;;;;;;4956383;28;20480;-82
2021/12/07 08:51:16;;;;;;;746.27;674.10;;;2.70;99.90;;;;;;4957827;29;20515;-81
2021/12/07 08:53:49;;;;;;;751.03;679.13;;;2.80;99.90;;;;;;4956984;29;20909;-82
2021/12/07 09:01:56;;;;;;;750.53;683.23;;;3.00;99.90;;;;;;4957259;28;20475;-83
2021/12/07 09:04:27;;;;;;;751.20;684.70;;;3.10;99.90;;;;;;4957811;28;20470;-82
2021/12/07 09:07:12;;;;;;;;;;;;;;;;;;;;;
2021/12/07 09:09:53;;;;;;;748.17;683.37;;;3.00;99.90;;;;;;4955351;29;20468;-82
2021/12/07 09:12:30;;;;;;;738.97;675.30;;;3.20;99.90;;;;;;4956672;29;20491;-83
2021/12/07 09:14:58;;;;;;;732.93;668.50;;;3.10;99.90;;;;;;4956415;29;20491;-82
2021/12/07 09:17:25;;;;;;;736.37;673.83;;;3.30;99.90;;;;;;4956815;28;20486;-82
2021/12/07 09:19:54;;;;;;;720.37;657.93;;;3.30;99.90;;;;;;4956560;28;20586;-83
2021/12/07 09:22:26;;;;;;;729.33;667.73;;;3.40;99.90;;;;;;4956883;28;20460;-83
2021/12/07 09:24:53;;;;;;;726.10;665.20;;;3.40;99.90;;;;;;4956788;29;20456;-83
2021/12/07 09:27:37;;;;;;;718.57;659.50;;;3.50;99.90;;;;;;4957670;28;20480;-82
2021/12/07 09:30:09;;;;;;;722.90;666.40;;;3.70;99.90;;;;;;4957354;29;20491;-83
2021/12/07 09:32:36;;;;;;;704.10;651.23;;;3.80;99.90;;;;;;4957097;28;20456;-82
2021/12/07 09:35:04;;;;;;;703.93;653.63;;;4.00;99.90;;;;;;4956749;28;20466;-83
2021/12/07 09:37:31;;;;;;;706.80;657.17;;;4.10;99.90;;;;;;4956876;28;20507;-82
2021/12/07 09:39:57;;;;;;;679.50;639.53;;;4.10;99.90;;;;;;4957348;28;20486;-82
2021/12/07 09:42:24;;;;;;;668.93;632.13;;;4.20;99.90;;;;;;4976568;28;20808;-83
2021/12/07 09:44:53;;;;;;;634.37;603.73;;;4.30;99.90;;;;;;4976765;28;20558;-83
2021/12/07 09:47:22;;;;;;;657.03;623.13;;;4.30;99.90;;;;;;4976318;28;20471;-81
2021/12/07 09:49:49;;;;;;;639.80;608.97;;;4.30;99.90;;;;;;4974812;28;20538;-83
2021/12/07 09:52:16;;;;;;;640.00;610.20;;;4.30;99.90;;;;;;4975607;28;20487;-82
2021/12/07 09:54:46;;;;;;;613.37;585.70;;;4.40;99.90;;;;;;4975171;28;20549;-82
2021/12/07 09:57:15;;;;;;;551.73;528.10;;;4.50;99.90;;;;;;4975886;28;20845;-82
2021/12/07 09:59:42;;;;;;;561.60;536.90;;;4.40;99.90;;;;;;4975797;28;20490;-82
2021/12/07 10:02:21;;;;;;;541.23;519.63;;;4.40;99.90;;;;;;4975666;28;20550;-83
2021/12/07 10:04:52;;;;;;;537.57;515.30;;;4.40;99.90;;;;;;4975479;28;20541;-82
2021/12/07 10:07:26;;;;;;;567.97;544.27;;;4.40;99.90;;;;;;4975164;28;20475;-83
2021/12/07 10:09:53;;;;;;;576.83;551.83;;;4.50;99.90;;;;;;4975763;28;20454;-82
2021/12/07 10:12:22;;;;;;;486.10;465.93;;;4.50;99.90;;;;;;4975613;28;20458;-82
2021/12/07 10:14:49;;;;;;;500.87;480.67;;;4.60;99.90;;;;;;4974820;28;20455;-82
2021/12/07 10:17:21;;;;;;;444.80;427.70;;;4.80;99.90;;;;;;4975352;28;20478;-82
2021/12/07 10:19:49;;;;;;;461.50;443.87;;;4.90;99.90;;;;;;4975125;28;20479;-82
2021/12/07 10:22:20;;;;;;;491.83;473.23;;;5.00;99.90;;;;;;4974990;28;20467;-83
2021/12/07 10:24:50;;;;;;;440.73;423.87;;;5.10;99.90;;;;;;4975328;28;20455;-82
2021/12/07 10:27:34;;;;;;;326.97;314.67;;;5.20;99.90;;;;;;4975102;28;20478;-82
2021/12/07 10:30:01;;;;;;;287.83;277.33;;;5.30;99.90;;;;;;4974790;28;20450;-82
2021/12/07 10:32:28;;;;;;;179.43;172.43;;;5.30;99.90;;;;;;4974895;28;20466;-82
2021/12/07 10:34:56;;;;;;;159.70;153.87;;;5.40;99.90;;;;;;4975291;28;20455;-83
2021/12/07 10:37:23;;;;;;;171.43;164.53;;;5.40;99.90;;;;;;4974577;28;21003;-82
2021/12/07 10:39:51;;;;;;;249.33;240.80;;;5.40;99.90;;;;;;4974658;28;20512;-82
2021/12/07 10:42:21;;;;;;;246.97;238.10;;;5.50;99.90;;;;;;4974807;28;20466;-82
2021/12/07 10:44:48;;;;;;;158.50;151.53;;;5.60;99.90;;;;;;4975256;28;20493;-82
2021/12/07 10:47:16;;;;;;;72.93;69.53;;;5.70;99.90;;;;;;4974725;28;20483;-82
2021/12/07 10:49:46;;;;;;;53.50;50.23;;;5.80;99.90;;;;;;4975482;28;20463;-82
2021/12/07 10:52:24;;;;;;;21.37;19.40;;;5.80;99.90;;;;;;4975288;28;20455;-82
2021/12/07 10:55:02;;;;;;;19.87;17.73;;;5.90;99.90;;;;;;4975049;28;20502;-82
2021/12/07 10:57:33;;;;;;;35.13;32.57;;;6.00;99.90;;;;;;4975405;28;20478;-82
2021/12/07 11:00:21;;;;;;;20.50;18.60;;;6.10;99.90;;;;;;4975882;28;20512;-85
2021/12/07 11:02:50;;;;;;;23.47;21.20;;;6.20;99.90;;;;;;4975105;28;20458;-82
2021/12/07 11:05:20;;;;;;;22.27;19.90;;;6.20;99.90;;;;;;4975529;28;20447;-82
2021/12/07 11:07:50;;;;;;;22.33;20.60;;;6.40;99.90;;;;;;4976572;28;20470;-82
2021/12/07 11:10:27;;;;;;;56.00;53.23;;;6.40;99.90;;;;;;4977291;28;21010;-82
2021/12/07 11:13:00;;;;;;;37.17;34.70;;;6.40;99.90;;;;;;4977155;28;20460;-83
2021/12/07 11:15:32;;;;;;;38.23;35.43;;;6.20;99.90;;;;;;4980070;28;20470;-83
2021/12/07 11:18:03;;;;;;;44.43;41.77;;;6.30;99.90;;;;;;4981150;28;20541;-84
2021/12/07 11:20:32;;;;;;;32.20;29.87;;;6.30;99.90;;;;;;4980987;28;20918;-84
2021/12/07 11:23:04;;;;;;;28.57;26.83;;;6.20;99.90;;;;;;4979300;28;20593;-84
2021/12/07 11:25:54;;;;;;;20.13;18.43;;;6.20;99.90;;;;;;4980644;28;20451;-84
2021/12/07 11:31:19;;;;;;;30.60;28.63;;;6.80;96.00;;;;;;4979336;28;20433;-85
2021/12/07 11:33:53;;;;;;;17.17;15.70;;;7.20;91.40;;;;;;4976654;28;20454;-85
2021/12/07 11:36:27;;;;;;;9.40;8.60;;;7.40;86.20;;;;;;4977733;28;20970;-85
2021/12/07 11:39:03;;;;;;;13.43;8.83;;;7.60;84.30;;;;;;4979055;28;20551;-85
2021/12/07 11:41:36;;;;;;;9.77;4.30;;;7.80;81.80;;;;;;4975377;28;20545;-85
2021/12/07 11:44:10;;;;;;;21.57;5.67;;;7.80;76.00;;;;;;4974812;28;20451;-85
2021/12/07 11:46:52;;;;;;;16.80;4.40;;;8.00;76.20;;;;;;4974596;28;20852;-85
2021/12/07 11:49:23;;;;;;;10.33;4.33;;;8.40;75.70;;;;;;4973653;28;20513;-85
2021/12/07 11:51:52;;;;;;;14.10;4.20;;;8.40;72.80;;;;;;4973891;28;20501;-85
2021/12/07 11:54:26;;;;;;;14.90;3.93;;;8.80;70.60;;;;;;4973854;28;20443;-85
2021/12/07 11:57:03;;;;;;;9.50;3.30;;;9.00;70.10;;;;;;4975027;28;20454;-83
2021/12/07 11:59:36;;;;;;;8.30;3.10;;;8.60;66.80;;;;;;4977281;28;20462;-85
2021/12/07 12:02:06;;;;;;;7.60;3.97;;;8.50;68.70;;;;;;4977355;28;20970;-85
2021/12/07 12:04:33;;;;;;;10.03;4.80;;;8.30;64.40;;;;;;4977568;28;20454;-85
2021/12/07 12:07:01;;;;;;;12.00;3.37;;;8.20;68.10;;;;;;4976991;28;20877;-85
2021/12/07 12:09:31;;;;;;;9.63;3.20;;;8.40;69.70;;;;;;4977328;28;20538;-85
2021/12/07 12:12:11;;;;;;;13.73;3.77;;;8.40;65.80;;;;;;4976999;28;20458;-85
2021/12/07 12:14:46;;;;;;;12.37;3.20;;;8.20;64.80;;;;;;4978332;28;20446;-85
2021/12/07 12:17:19;;;;;;;11.80;2.80;;;8.10;65.10;;;;;;4976706;28;21029;-85
2021/12/07 12:20:26;;;;;;;9.20;3.13;;;8.20;65.60;;;;;;4978070;28;20467;-85
2021/12/07 12:22:59;;;;;;;7.23;2.33;;;8.00;62.70;;;;;;4977289;28;20466;-85
2021/12/07 12:25:31;;;;;;;9.63;2.07;;;8.10;63.90;;;;;;4977012;28;20447;-85
2021/12/07 12:27:59;;;;;;;10.20;2.23;;;8.10;64.30;;;;;;4977334;28;20536;-85
2021/12/07 12:30:28;;;;;;;9.10;1.60;;;8.20;63.70;;;;;;4976815;28;20500;-85
2021/12/07 12:32:57;;;;;;;13.60;2.60;;;8.00;62.10;;;;;;4976683;28;20459;-85
2021/12/07 12:35:34;;;;;;;7.30;2.40;;;7.90;61.40;;;;;;4976922;28;20979;-85
2021/12/07 12:38:02;;;;;;;4.90;2.30;;;7.80;61.80;;;;;;4976770;28;20573;-85
2021/12/07 12:40:34;;;;;;;6.40;2.13;;;7.70;63.70;;;;;;4978050;28;20458;-85
2021/12/07 12:43:02;;;;;;;8.03;1.93;;;7.70;64.60;;;;;;4976766;28;20466;-85
2021/12/07 12:45:34;;;;;;;6.00;1.80;;;7.60;61.60;;;;;;4975964;28;20458;-84
2021/12/07 12:48:04;;;;;;;10.37;2.37;;;7.70;62.30;;;;;;4978297;28;20467;-85
2021/12/07 12:50:34;;;;;;;5.73;2.93;;;7.50;60.50;;;;;;4977367;28;20478;-85
2021/12/07 12:53:03;;;;;;;8.90;2.20;;;7.50;63.00;;;;;;4976803;28;20828;-85
2021/12/07 12:55:39;;;;;;;4.80;2.00;;;7.40;63.20;;;;;;4976877;28;20459;-84
2021/12/07 12:58:10;;;;;;;8.57;2.93;;;7.40;61.60;;;;;;4976799;28;21066;-85
2021/12/07 13:01:13;;;;;;;8.83;2.90;;;7.50;63.60;;;;;;4977459;28;20542;-86
2021/12/07 13:04:04;;;;;;;5.40;2.03;;;7.30;61.70;;;;;;4977690;28;20458;-85
2021/12/07 13:06:54;;;;;;;12.07;2.27;;;7.30;63.30;;;;;;4976824;28;20455;-85
2021/12/07 13:09:30;;;;;;;9.30;3.20;;;7.10;61.60;;;;;;4975721;28;20447;-84
2021/12/07 13:12:03;;;;;;;15.60;3.13;;;7.10;62.20;;;;;;4977915;28;20474;-84
2021/12/07 13:14:36;;;;;;;6.90;2.30;;;7.20;63.70;;;;;;4976908;28;20495;-84
2021/12/07 13:17:08;;;;;;;8.20;2.03;;;7.30;62.90;;;;;;4976442;28;20502;-85
2021/12/07 13:20:16;;;;;;;7.77;2.10;;;7.20;63.40;;;;;;4976304;28;20451;-85
2021/12/07 13:22:47;;;;;;;9.90;2.90;;;7.50;63.80;;;;;;4976525;28;21133;-85
2021/12/07 13:25:16;;;;;;;9.93;2.27;;;7.50;64.00;;;;;;4976129;28;20454;-85
2021/12/07 13:28:21;;;;;;;6.90;1.73;;;7.50;62.60;;;;;;4976800;28;20471;-85
2021/12/07 13:31:15;;;;;;;6.73;1.80;;;7.10;62.70;;;;;;4976045;28;20489;-85
2021/12/07 13:33:43;;;;;;;9.40;2.67;;;6.70;65.60;;;;;;4976565;28;20954;-85
2021/12/07 13:36:49;;;;;;;8.43;2.10;;;6.50;66.60;;;;;;4976059;28;20539;-85
2021/12/07 13:39:36;;;;;;;15.50;2.50;;;6.40;69.20;;;;;;4976248;28;20538;-85
2021/12/07 13:42:06;;;;;;;8.60;2.30;;;6.20;71.30;;;;;;4976188;28;20482;-85
2021/12/07 13:44:36;;;;;;;10.00;2.77;;;6.10;71.50;;;;;;4976054;28;20448;-84
2021/12/07 13:47:07;;;;;;;5.40;1.90;;;5.90;75.00;;;;;;4975932;28;20959;-85
2021/12/07 13:49:35;;;;;;;9.20;2.70;;;5.90;75.80;;;;;;4976125;28;20443;-85
2021/12/07 13:52:08;;;;;;;6.20;2.17;;;5.80;76.00;;;;;;4978258;28;20486;-85
2021/12/07 13:54:40;;;;;;;11.53;3.00;;;5.70;78.70;;;;;;4978163;28;20455;-84
2021/12/07 13:57:12;;;;;;;5.37;2.47;;;5.60;78.20;;;;;;4979387;28;20475;-85
2021/12/07 13:59:40;;;;;;;7.63;1.93;;;5.60;82.30;;;;;;4976252;28;20462;-85
2021/12/07 14:02:08;;;;;;;9.30;2.50;;;5.50;80.10;;;;;;4977472;28;20502;-85
2021/12/07 14:04:35;;;;;;;8.13;2.80;;;5.50;80.80;;;;;;4977282;28;20459;-85
2021/12/07 14:07:02;;;;;;;13.47;2.80;;;5.30;85.60;;;;;;4976618;28;20457;-85
2021/12/07 14:09:29;;;;;;;12.60;2.73;;;5.40;87.40;;;;;;4976744;28;20465;-85
2021/12/07 14:11:59;;;;;;;7.37;2.67;;;5.20;85.90;;;;;;4976505;28;20508;-85
2021/12/07 14:14:28;;;;;;;6.60;2.13;;;5.20;84.10;;;;;;4976965;28;20494;-86